sensor_id;sensor_type;location;lat;lon;timestamp;P1;durP1;ratioP1;P2;durP2;ratioP2
51270;SDS011;37744;50.960;4.136;2023-06-26T00:01:49;5.82;;;4.00;;
51270;SDS011;37744;50.960;4.136;2023-06-26T00:04:14;6.28;;;3.58;;
51270;SDS011;37744;50.960;4.136;2023-06-26T00:06:40;4.85;;;3.70;;
51270;SDS011;37744;50.960;4.136;2023-06-26T00:09:05;5.82;;;3.30;;
51270;SDS011;37744;50.960;4.136;2023-06-26T00:11:32;4.97;;;3.60;;
51270;SDS011;37744;50.960;4.136;2023-06-26T00:13:58;7.63;;;3.95;;
51270;SDS011;37744;50.960;4.136;2023-06-26T00:16:26;5.70;;;4.15;;
51270;SDS011;37744;50.960;4.136;2023-06-26T00:18:52;7.05;;;4.00;;
51270;SDS011;37744;50.960;4.136;2023-06-26T00:21:19;7.80;;;4.13;;
51270;SDS011;37744;50.960;4.136;2023-06-26T00:23:45;7.00;;;3.45;;
51270;SDS011;37744;50.960;4.136;2023-06-26T00:26:11;5.43;;;3.70;;
51270;SDS011;37744;50.960;4.136;2023-06-26T00:28:37;6.00;;;3.83;;
51270;SDS011;37744;50.960;4.136;2023-06-26T00:31:02;8.27;;;4.00;;
51270;SDS011;37744;50.960;4.136;2023-06-26T00:33:29;6.03;;;3.92;;
51270;SDS011;37744;50.960;4.136;2023-06-26T00:35:54;5.63;;;3.25;;
51270;SDS011;37744;50.960;4.136;2023-06-26T00:38:20;6.75;;;3.78;;
51270;SDS011;37744;50.960;4.136;2023-06-26T00:40:46;7.28;;;3.70;;
51270;SDS011;37744;50.960;4.136;2023-06-26T00:43:11;7.10;;;3.47;;
51270;SDS011;37744;50.960;4.136;2023-06-26T00:45:37;4.60;;;3.45;;
51270;SDS011;37744;50.960;4.136;2023-06-26T00:48:03;5.03;;;3.28;;
51270;SDS011;37744;50.960;4.136;2023-06-26T00:50:28;6.13;;;3.28;;
51270;SDS011;37744;50.960;4.136;2023-06-26T00:52:54;7.50;;;3.35;;
51270;SDS011;37744;50.960;4.136;2023-06-26T00:55:22;6.68;;;3.70;;
51270;SDS011;37744;50.960;4.136;2023-06-26T00:57:49;5.50;;;3.45;;
51270;SDS011;37744;50.960;4.136;2023-06-26T01:00:14;9.27;;;4.10;;
51270;SDS011;37744;50.960;4.136;2023-06-26T01:02:40;8.45;;;3.75;;
51270;SDS011;37744;50.960;4.136;2023-06-26T01:05:05;5.00;;;3.17;;
51270;SDS011;37744;50.960;4.136;2023-06-26T01:07:32;9.48;;;3.88;;
51270;SDS011;37744;50.960;4.136;2023-06-26T01:10:04;7.50;;;3.80;;
51270;SDS011;37744;50.960;4.136;2023-06-26T01:12:30;6.63;;;3.90;;
51270;SDS011;37744;50.960;4.136;2023-06-26T01:14:58;5.72;;;3.60;;
51270;SDS011;37744;50.960;4.136;2023-06-26T01:17:26;5.38;;;3.63;;
51270;SDS011;37744;50.960;4.136;2023-06-26T01:19:53;5.68;;;3.63;;
51270;SDS011;37744;50.960;4.136;2023-06-26T01:22:20;5.93;;;3.85;;
51270;SDS011;37744;50.960;4.136;2023-06-26T01:27:34;7.57;;;3.78;;
51270;SDS011;37744;50.960;4.136;2023-06-26T01:30:00;8.05;;;3.88;;
51270;SDS011;37744;50.960;4.136;2023-06-26T01:32:27;8.23;;;3.83;;
51270;SDS011;37744;50.960;4.136;2023-06-26T01:34:53;6.53;;;3.20;;
51270;SDS011;37744;50.960;4.136;2023-06-26T01:37:18;6.28;;;3.88;;
51270;SDS011;37744;50.960;4.136;2023-06-26T01:39:43;7.97;;;3.88;;
51270;SDS011;37744;50.960;4.136;2023-06-26T01:42:10;8.45;;;4.00;;
51270;SDS011;37744;50.960;4.136;2023-06-26T01:44:36;9.75;;;3.88;;
51270;SDS011;37744;50.960;4.136;2023-06-26T01:47:06;8.68;;;4.05;;
51270;SDS011;37744;50.960;4.136;2023-06-26T01:52:07;6.88;;;3.65;;
51270;SDS011;37744;50.960;4.136;2023-06-26T01:54:35;7.60;;;4.20;;
51270;SDS011;37744;50.960;4.136;2023-06-26T01:57:02;8.90;;;3.65;;
51270;SDS011;37744;50.960;4.136;2023-06-26T01:59:30;9.57;;;4.20;;
51270;SDS011;37744;50.960;4.136;2023-06-26T02:01:56;6.75;;;3.63;;
51270;SDS011;37744;50.960;4.136;2023-06-26T02:04:22;7.25;;;3.50;;
51270;SDS011;37744;50.960;4.136;2023-06-26T02:06:47;8.90;;;3.67;;
51270;SDS011;37744;50.960;4.136;2023-06-26T02:09:13;8.57;;;4.07;;
51270;SDS011;37744;50.960;4.136;2023-06-26T02:11:38;8.27;;;4.03;;
51270;SDS011;37744;50.960;4.136;2023-06-26T02:14:04;7.55;;;4.00;;
51270;SDS011;37744;50.960;4.136;2023-06-26T02:16:29;9.13;;;4.18;;
51270;SDS011;37744;50.960;4.136;2023-06-26T02:18:54;8.77;;;4.43;;
51270;SDS011;37744;50.960;4.136;2023-06-26T02:21:20;11.68;;;4.32;;
51270;SDS011;37744;50.960;4.136;2023-06-26T02:23:45;9.77;;;4.13;;
51270;SDS011;37744;50.960;4.136;2023-06-26T02:26:10;8.60;;;4.32;;
51270;SDS011;37744;50.960;4.136;2023-06-26T02:28:36;11.38;;;4.40;;
51270;SDS011;37744;50.960;4.136;2023-06-26T02:31:01;11.98;;;5.10;;
51270;SDS011;37744;50.960;4.136;2023-06-26T02:33:27;9.65;;;4.55;;
51270;SDS011;37744;50.960;4.136;2023-06-26T02:35:52;9.10;;;4.70;;
51270;SDS011;37744;50.960;4.136;2023-06-26T02:38:18;8.57;;;4.70;;
51270;SDS011;37744;50.960;4.136;2023-06-26T02:40:43;12.43;;;5.45;;
51270;SDS011;37744;50.960;4.136;2023-06-26T02:43:10;14.57;;;5.38;;
51270;SDS011;37744;50.960;4.136;2023-06-26T02:45:35;10.55;;;5.07;;
51270;SDS011;37744;50.960;4.136;2023-06-26T02:48:00;11.23;;;5.22;;
51270;SDS011;37744;50.960;4.136;2023-06-26T02:50:26;12.88;;;5.18;;
51270;SDS011;37744;50.960;4.136;2023-06-26T02:52:51;14.50;;;5.82;;
51270;SDS011;37744;50.960;4.136;2023-06-26T02:55:18;16.15;;;5.57;;
51270;SDS011;37744;50.960;4.136;2023-06-26T02:57:44;13.65;;;5.45;;
51270;SDS011;37744;50.960;4.136;2023-06-26T03:00:10;13.75;;;4.95;;
51270;SDS011;37744;50.960;4.136;2023-06-26T03:02:36;16.45;;;5.22;;
51270;SDS011;37744;50.960;4.136;2023-06-26T03:05:01;13.88;;;5.85;;
51270;SDS011;37744;50.960;4.136;2023-06-26T03:07:26;16.00;;;5.80;;
51270;SDS011;37744;50.960;4.136;2023-06-26T03:09:53;13.75;;;5.65;;
51270;SDS011;37744;50.960;4.136;2023-06-26T03:12:19;12.48;;;5.57;;
51270;SDS011;37744;50.960;4.136;2023-06-26T03:14:44;14.23;;;6.38;;
51270;SDS011;37744;50.960;4.136;2023-06-26T03:17:09;13.95;;;5.90;;
51270;SDS011;37744;50.960;4.136;2023-06-26T03:19:35;16.08;;;5.65;;
51270;SDS011;37744;50.960;4.136;2023-06-26T03:22:01;12.60;;;6.07;;
51270;SDS011;37744;50.960;4.136;2023-06-26T03:24:26;12.88;;;5.43;;
51270;SDS011;37744;50.960;4.136;2023-06-26T03:26:53;19.58;;;6.00;;
51270;SDS011;37744;50.960;4.136;2023-06-26T03:29:19;17.35;;;6.00;;
51270;SDS011;37744;50.960;4.136;2023-06-26T03:31:44;17.77;;;5.80;;
51270;SDS011;37744;50.960;4.136;2023-06-26T03:34:09;14.93;;;5.90;;
51270;SDS011;37744;50.960;4.136;2023-06-26T03:36:36;18.10;;;6.60;;
51270;SDS011;37744;50.960;4.136;2023-06-26T03:39:01;18.77;;;6.05;;
51270;SDS011;37744;50.960;4.136;2023-06-26T03:41:26;12.65;;;5.70;;
51270;SDS011;37744;50.960;4.136;2023-06-26T03:43:52;15.35;;;6.30;;
51270;SDS011;37744;50.960;4.136;2023-06-26T03:46:19;12.98;;;5.25;;
51270;SDS011;37744;50.960;4.136;2023-06-26T03:48:44;13.35;;;5.68;;
51270;SDS011;37744;50.960;4.136;2023-06-26T03:51:10;16.05;;;5.80;;
51270;SDS011;37744;50.960;4.136;2023-06-26T03:53:36;14.40;;;5.75;;
51270;SDS011;37744;50.960;4.136;2023-06-26T03:56:01;17.27;;;5.50;;
51270;SDS011;37744;50.960;4.136;2023-06-26T03:58:26;18.48;;;6.05;;
51270;SDS011;37744;50.960;4.136;2023-06-26T04:00:53;15.80;;;6.22;;
51270;SDS011;37744;50.960;4.136;2023-06-26T04:03:18;17.25;;;5.03;;
51270;SDS011;37744;50.960;4.136;2023-06-26T04:05:43;12.90;;;4.70;;
51270;SDS011;37744;50.960;4.136;2023-06-26T04:08:09;20.02;;;5.35;;
51270;SDS011;37744;50.960;4.136;2023-06-26T04:10:34;18.80;;;5.27;;
51270;SDS011;37744;50.960;4.136;2023-06-26T04:13:01;20.92;;;5.22;;
51270;SDS011;37744;50.960;4.136;2023-06-26T04:15:27;12.52;;;5.03;;
51270;SDS011;37744;50.960;4.136;2023-06-26T04:17:52;17.17;;;5.63;;
51270;SDS011;37744;50.960;4.136;2023-06-26T04:20:18;23.52;;;6.07;;
51270;SDS011;37744;50.960;4.136;2023-06-26T04:22:43;18.45;;;5.75;;
51270;SDS011;37744;50.960;4.136;2023-06-26T04:25:08;15.98;;;5.60;;
51270;SDS011;37744;50.960;4.136;2023-06-26T04:27:33;12.23;;;5.80;;
51270;SDS011;37744;50.960;4.136;2023-06-26T04:29:59;17.67;;;4.93;;
51270;SDS011;37744;50.960;4.136;2023-06-26T04:32:24;15.02;;;5.40;;
51270;SDS011;37744;50.960;4.136;2023-06-26T04:34:50;24.20;;;5.05;;
51270;SDS011;37744;50.960;4.136;2023-06-26T04:37:16;11.82;;;4.35;;
51270;SDS011;37744;50.960;4.136;2023-06-26T04:39:44;19.35;;;4.82;;
51270;SDS011;37744;50.960;4.136;2023-06-26T04:42:09;18.60;;;4.90;;
51270;SDS011;37744;50.960;4.136;2023-06-26T04:44:38;14.68;;;4.47;;
51270;SDS011;37744;50.960;4.136;2023-06-26T04:47:03;18.40;;;4.82;;
51270;SDS011;37744;50.960;4.136;2023-06-26T04:49:29;12.52;;;3.70;;
51270;SDS011;37744;50.960;4.136;2023-06-26T04:51:55;16.90;;;5.10;;
51270;SDS011;37744;50.960;4.136;2023-06-26T04:54:20;17.33;;;4.93;;
51270;SDS011;37744;50.960;4.136;2023-06-26T04:56:46;15.23;;;4.45;;
51270;SDS011;37744;50.960;4.136;2023-06-26T04:59:13;12.00;;;3.88;;
51270;SDS011;37744;50.960;4.136;2023-06-26T05:01:39;13.50;;;4.13;;
51270;SDS011;37744;50.960;4.136;2023-06-26T05:04:04;14.38;;;4.45;;
51270;SDS011;37744;50.960;4.136;2023-06-26T05:06:31;15.65;;;4.32;;
51270;SDS011;37744;50.960;4.136;2023-06-26T05:08:56;14.10;;;3.83;;
51270;SDS011;37744;50.960;4.136;2023-06-26T05:11:22;13.75;;;4.63;;
51270;SDS011;37744;50.960;4.136;2023-06-26T05:13:48;12.30;;;3.80;;
51270;SDS011;37744;50.960;4.136;2023-06-26T05:16:14;10.30;;;3.78;;
51270;SDS011;37744;50.960;4.136;2023-06-26T05:18:40;13.27;;;3.63;;
51270;SDS011;37744;50.960;4.136;2023-06-26T05:21:05;9.70;;;3.55;;
51270;SDS011;37744;50.960;4.136;2023-06-26T05:23:31;13.85;;;4.28;;
51270;SDS011;37744;50.960;4.136;2023-06-26T05:25:57;12.20;;;3.80;;
51270;SDS011;37744;50.960;4.136;2023-06-26T05:28:23;15.77;;;3.45;;
51270;SDS011;37744;50.960;4.136;2023-06-26T05:30:50;14.23;;;4.10;;
51270;SDS011;37744;50.960;4.136;2023-06-26T05:33:17;15.18;;;3.70;;
51270;SDS011;37744;50.960;4.136;2023-06-26T05:35:42;12.45;;;3.55;;
51270;SDS011;37744;50.960;4.136;2023-06-26T05:38:10;11.23;;;3.38;;
51270;SDS011;37744;50.960;4.136;2023-06-26T05:40:35;15.82;;;3.60;;
51270;SDS011;37744;50.960;4.136;2023-06-26T05:43:01;9.88;;;3.40;;
51270;SDS011;37744;50.960;4.136;2023-06-26T05:45:28;11.75;;;3.10;;
51270;SDS011;37744;50.960;4.136;2023-06-26T05:47:53;10.00;;;3.63;;
51270;SDS011;37744;50.960;4.136;2023-06-26T05:50:18;8.15;;;3.17;;
51270;SDS011;37744;50.960;4.136;2023-06-26T05:52:45;11.60;;;2.78;;
51270;SDS011;37744;50.960;4.136;2023-06-26T05:55:10;7.65;;;2.65;;
51270;SDS011;37744;50.960;4.136;2023-06-26T05:57:36;8.57;;;2.92;;
51270;SDS011;37744;50.960;4.136;2023-06-26T06:00:02;9.63;;;3.35;;
51270;SDS011;37744;50.960;4.136;2023-06-26T06:02:31;7.85;;;2.67;;
51270;SDS011;37744;50.960;4.136;2023-06-26T06:04:56;12.48;;;2.85;;
51270;SDS011;37744;50.960;4.136;2023-06-26T06:07:23;11.32;;;2.70;;
51270;SDS011;37744;50.960;4.136;2023-06-26T06:09:49;10.43;;;2.75;;
51270;SDS011;37744;50.960;4.136;2023-06-26T06:12:15;8.27;;;2.53;;
51270;SDS011;37744;50.960;4.136;2023-06-26T06:14:41;7.32;;;2.53;;
51270;SDS011;37744;50.960;4.136;2023-06-26T06:17:08;9.18;;;2.60;;
51270;SDS011;37744;50.960;4.136;2023-06-26T06:19:34;9.32;;;2.90;;
51270;SDS011;37744;50.960;4.136;2023-06-26T06:21:59;7.80;;;2.20;;
51270;SDS011;37744;50.960;4.136;2023-06-26T06:24:25;7.03;;;2.20;;
51270;SDS011;37744;50.960;4.136;2023-06-26T06:26:50;13.95;;;2.40;;
51270;SDS011;37744;50.960;4.136;2023-06-26T06:29:16;11.18;;;2.40;;
51270;SDS011;37744;50.960;4.136;2023-06-26T06:31:44;11.07;;;2.30;;
51270;SDS011;37744;50.960;4.136;2023-06-26T06:34:10;11.90;;;2.42;;
51270;SDS011;37744;50.960;4.136;2023-06-26T06:36:36;6.97;;;2.13;;
51270;SDS011;37744;50.960;4.136;2023-06-26T06:39:02;6.55;;;2.08;;
51270;SDS011;37744;50.960;4.136;2023-06-26T06:41:29;11.65;;;2.30;;
51270;SDS011;37744;50.960;4.136;2023-06-26T06:43:55;10.82;;;2.67;;
51270;SDS011;37744;50.960;4.136;2023-06-26T06:46:21;6.10;;;2.20;;
51270;SDS011;37744;50.960;4.136;2023-06-26T06:48:47;10.27;;;2.38;;
51270;SDS011;37744;50.960;4.136;2023-06-26T06:51:12;9.10;;;2.28;;
51270;SDS011;37744;50.960;4.136;2023-06-26T06:53:39;8.55;;;2.42;;
51270;SDS011;37744;50.960;4.136;2023-06-26T06:56:04;9.60;;;2.33;;
51270;SDS011;37744;50.960;4.136;2023-06-26T06:58:29;5.78;;;2.03;;
51270;SDS011;37744;50.960;4.136;2023-06-26T07:00:59;8.63;;;2.10;;
51270;SDS011;37744;50.960;4.136;2023-06-26T07:03:25;7.88;;;2.20;;
51270;SDS011;37744;50.960;4.136;2023-06-26T07:05:51;7.57;;;2.33;;
51270;SDS011;37744;50.960;4.136;2023-06-26T07:08:16;4.90;;;2.00;;
51270;SDS011;37744;50.960;4.136;2023-06-26T07:10:43;12.30;;;3.17;;
51270;SDS011;37744;50.960;4.136;2023-06-26T07:13:08;7.25;;;2.38;;
51270;SDS011;37744;50.960;4.136;2023-06-26T07:15:34;8.32;;;2.58;;
51270;SDS011;37744;50.960;4.136;2023-06-26T07:18:00;7.65;;;2.40;;
51270;SDS011;37744;50.960;4.136;2023-06-26T07:20:25;7.82;;;2.63;;
51270;SDS011;37744;50.960;4.136;2023-06-26T07:22:52;8.27;;;2.33;;
51270;SDS011;37744;50.960;4.136;2023-06-26T07:25:18;6.55;;;2.13;;
51270;SDS011;37744;50.960;4.136;2023-06-26T07:27:44;9.60;;;2.35;;
51270;SDS011;37744;50.960;4.136;2023-06-26T07:30:10;10.13;;;2.50;;
51270;SDS011;37744;50.960;4.136;2023-06-26T07:32:35;7.45;;;2.35;;
51270;SDS011;37744;50.960;4.136;2023-06-26T07:35:02;5.00;;;2.40;;
51270;SDS011;37744;50.960;4.136;2023-06-26T07:37:27;7.22;;;2.42;;
51270;SDS011;37744;50.960;4.136;2023-06-26T07:39:52;7.10;;;2.65;;
51270;SDS011;37744;50.960;4.136;2023-06-26T07:42:19;7.07;;;2.33;;
51270;SDS011;37744;50.960;4.136;2023-06-26T07:44:44;5.22;;;2.15;;
51270;SDS011;37744;50.960;4.136;2023-06-26T07:47:11;7.03;;;2.58;;
51270;SDS011;37744;50.960;4.136;2023-06-26T07:49:39;8.32;;;2.10;;
51270;SDS011;37744;50.960;4.136;2023-06-26T07:52:04;9.98;;;2.55;;
51270;SDS011;37744;50.960;4.136;2023-06-26T07:54:31;6.65;;;2.53;;
51270;SDS011;37744;50.960;4.136;2023-06-26T07:59:22;4.82;;;2.40;;
51270;SDS011;37744;50.960;4.136;2023-06-26T08:01:49;10.07;;;2.92;;
51270;SDS011;37744;50.960;4.136;2023-06-26T08:04:16;10.82;;;3.30;;
51270;SDS011;37744;50.960;4.136;2023-06-26T08:06:43;7.32;;;2.80;;
51270;SDS011;37744;50.960;4.136;2023-06-26T08:09:08;12.15;;;2.28;;
51270;SDS011;37744;50.960;4.136;2023-06-26T08:11:35;8.25;;;3.20;;
51270;SDS011;37744;50.960;4.136;2023-06-26T08:14:01;8.35;;;3.10;;
51270;SDS011;37744;50.960;4.136;2023-06-26T08:16:26;4.03;;;1.80;;
51270;SDS011;37744;50.960;4.136;2023-06-26T08:18:52;6.53;;;2.10;;
51270;SDS011;37744;50.960;4.136;2023-06-26T08:21:19;5.00;;;1.60;;
51270;SDS011;37744;50.960;4.136;2023-06-26T08:23:44;7.00;;;1.90;;
51270;SDS011;37744;50.960;4.136;2023-06-26T08:26:09;8.48;;;1.95;;
51270;SDS011;37744;50.960;4.136;2023-06-26T08:28:34;3.63;;;1.80;;
51270;SDS011;37744;50.960;4.136;2023-06-26T08:31:00;9.07;;;2.25;;
51270;SDS011;37744;50.960;4.136;2023-06-26T08:33:25;6.80;;;1.90;;
51270;SDS011;37744;50.960;4.136;2023-06-26T08:35:51;5.10;;;2.15;;
51270;SDS011;37744;50.960;4.136;2023-06-26T08:38:16;3.80;;;1.63;;
51270;SDS011;37744;50.960;4.136;2023-06-26T08:40:41;7.70;;;1.73;;
51270;SDS011;37744;50.960;4.136;2023-06-26T08:43:08;4.72;;;1.48;;
51270;SDS011;37744;50.960;4.136;2023-06-26T08:45:33;6.72;;;2.10;;
51270;SDS011;37744;50.960;4.136;2023-06-26T08:48:00;8.18;;;1.95;;
51270;SDS011;37744;50.960;4.136;2023-06-26T08:50:27;10.27;;;2.00;;
51270;SDS011;37744;50.960;4.136;2023-06-26T08:55:23;6.15;;;1.85;;
51270;SDS011;37744;50.960;4.136;2023-06-26T08:57:51;3.17;;;1.40;;
51270;SDS011;37744;50.960;4.136;2023-06-26T09:00:17;4.10;;;1.30;;
51270;SDS011;37744;50.960;4.136;2023-06-26T09:02:42;3.13;;;1.50;;
51270;SDS011;37744;50.960;4.136;2023-06-26T09:05:08;6.65;;;1.30;;
51270;SDS011;37744;50.960;4.136;2023-06-26T09:07:33;8.20;;;1.70;;
51270;SDS011;37744;50.960;4.136;2023-06-26T09:09:58;3.33;;;1.40;;
51270;SDS011;37744;50.960;4.136;2023-06-26T09:12:26;4.55;;;1.38;;
51270;SDS011;37744;50.960;4.136;2023-06-26T09:14:51;4.22;;;1.38;;
51270;SDS011;37744;50.960;4.136;2023-06-26T09:17:16;5.95;;;1.50;;
51270;SDS011;37744;50.960;4.136;2023-06-26T09:19:47;4.35;;;1.40;;
51270;SDS011;37744;50.960;4.136;2023-06-26T09:22:14;7.88;;;1.55;;
51270;SDS011;37744;50.960;4.136;2023-06-26T09:24:41;4.85;;;1.25;;
51270;SDS011;37744;50.960;4.136;2023-06-26T09:27:06;5.05;;;1.35;;
51270;SDS011;37744;50.960;4.136;2023-06-26T09:29:32;3.03;;;1.50;;
51270;SDS011;37744;50.960;4.136;2023-06-26T09:31:59;3.28;;;1.25;;
51270;SDS011;37744;50.960;4.136;2023-06-26T09:34:30;3.55;;;1.27;;
51270;SDS011;37744;50.960;4.136;2023-06-26T09:36:55;5.43;;;1.70;;
51270;SDS011;37744;50.960;4.136;2023-06-26T09:39:20;4.22;;;1.25;;
51270;SDS011;37744;50.960;4.136;2023-06-26T09:41:46;4.05;;;1.38;;
51270;SDS011;37744;50.960;4.136;2023-06-26T09:44:14;4.75;;;1.38;;
51270;SDS011;37744;50.960;4.136;2023-06-26T09:46:40;6.30;;;1.58;;
51270;SDS011;37744;50.960;4.136;2023-06-26T09:51:32;6.00;;;1.38;;
51270;SDS011;37744;50.960;4.136;2023-06-26T09:53:58;1.98;;;1.08;;
51270;SDS011;37744;50.960;4.136;2023-06-26T09:56:24;6.30;;;1.23;;
51270;SDS011;37744;50.960;4.136;2023-06-26T09:58:51;4.10;;;1.50;;
51270;SDS011;37744;50.960;4.136;2023-06-26T10:01:17;5.50;;;1.48;;
51270;SDS011;37744;50.960;4.136;2023-06-26T10:03:44;5.43;;;1.45;;
51270;SDS011;37744;50.960;4.136;2023-06-26T10:06:09;4.88;;;1.52;;
51270;SDS011;37744;50.960;4.136;2023-06-26T10:08:37;4.53;;;1.70;;
51270;SDS011;37744;50.960;4.136;2023-06-26T10:11:03;5.15;;;1.75;;
51270;SDS011;37744;50.960;4.136;2023-06-26T10:13:31;3.90;;;1.50;;
51270;SDS011;37744;50.960;4.136;2023-06-26T10:15:59;4.22;;;1.40;;
51270;SDS011;37744;50.960;4.136;2023-06-26T10:18:26;2.85;;;1.10;;
51270;SDS011;37744;50.960;4.136;2023-06-26T10:20:53;4.13;;;1.65;;
51270;SDS011;37744;50.960;4.136;2023-06-26T10:23:20;5.15;;;1.27;;
51270;SDS011;37744;50.960;4.136;2023-06-26T10:25:46;4.82;;;0.98;;
51270;SDS011;37744;50.960;4.136;2023-06-26T10:28:14;3.47;;;1.20;;
51270;SDS011;37744;50.960;4.136;2023-06-26T10:30:40;4.75;;;1.50;;
51270;SDS011;37744;50.960;4.136;2023-06-26T10:33:06;4.10;;;1.13;;
51270;SDS011;37744;50.960;4.136;2023-06-26T10:35:32;5.07;;;1.13;;
51270;SDS011;37744;50.960;4.136;2023-06-26T10:38:02;5.97;;;1.20;;
51270;SDS011;37744;50.960;4.136;2023-06-26T10:40:42;4.13;;;1.10;;
51270;SDS011;37744;50.960;4.136;2023-06-26T10:43:09;2.60;;;1.20;;
51270;SDS011;37744;50.960;4.136;2023-06-26T10:45:34;5.95;;;1.45;;
51270;SDS011;37744;50.960;4.136;2023-06-26T10:48:01;4.43;;;1.20;;
51270;SDS011;37744;50.960;4.136;2023-06-26T10:50:27;3.20;;;1.33;;
51270;SDS011;37744;50.960;4.136;2023-06-26T10:53:10;6.22;;;1.35;;
51270;SDS011;37744;50.960;4.136;2023-06-26T10:55:36;4.72;;;1.13;;
51270;SDS011;37744;50.960;4.136;2023-06-26T10:58:03;5.03;;;1.25;;
51270;SDS011;37744;50.960;4.136;2023-06-26T11:00:29;3.72;;;1.30;;
51270;SDS011;37744;50.960;4.136;2023-06-26T11:02:54;3.05;;;1.20;;
51270;SDS011;37744;50.960;4.136;2023-06-26T11:05:23;6.63;;;1.45;;
51270;SDS011;37744;50.960;4.136;2023-06-26T11:08:08;9.88;;;1.30;;
51270;SDS011;37744;50.960;4.136;2023-06-26T11:10:54;3.75;;;1.38;;
51270;SDS011;37744;50.960;4.136;2023-06-26T11:13:20;4.95;;;1.33;;
51270;SDS011;37744;50.960;4.136;2023-06-26T11:15:45;4.38;;;1.40;;
51270;SDS011;37744;50.960;4.136;2023-06-26T11:18:11;2.97;;;1.40;;
51270;SDS011;37744;50.960;4.136;2023-06-26T11:20:37;4.68;;;1.60;;
51270;SDS011;37744;50.960;4.136;2023-06-26T11:23:05;5.47;;;1.10;;
51270;SDS011;37744;50.960;4.136;2023-06-26T11:25:36;6.50;;;1.25;;
51270;SDS011;37744;50.960;4.136;2023-06-26T11:28:02;3.38;;;1.38;;
51270;SDS011;37744;50.960;4.136;2023-06-26T11:30:29;2.42;;;1.50;;
51270;SDS011;37744;50.960;4.136;2023-06-26T11:33:02;5.07;;;1.23;;
51270;SDS011;37744;50.960;4.136;2023-06-26T11:35:27;3.45;;;1.50;;
51270;SDS011;37744;50.960;4.136;2023-06-26T11:37:57;4.15;;;1.35;;
51270;SDS011;37744;50.960;4.136;2023-06-26T11:40:25;3.65;;;1.40;;
51270;SDS011;37744;50.960;4.136;2023-06-26T11:42:53;1.80;;;1.30;;
51270;SDS011;37744;50.960;4.136;2023-06-26T11:45:19;4.13;;;1.42;;
51270;SDS011;37744;50.960;4.136;2023-06-26T11:47:45;2.33;;;1.55;;
51270;SDS011;37744;50.960;4.136;2023-06-26T11:50:19;5.05;;;1.60;;
51270;SDS011;37744;50.960;4.136;2023-06-26T11:52:45;2.80;;;1.40;;
51270;SDS011;37744;50.960;4.136;2023-06-26T11:55:10;3.10;;;1.25;;
51270;SDS011;37744;50.960;4.136;2023-06-26T11:57:36;4.72;;;1.40;;
51270;SDS011;37744;50.960;4.136;2023-06-26T12:00:11;5.65;;;1.75;;
51270;SDS011;37744;50.960;4.136;2023-06-26T12:02:37;3.15;;;1.63;;
51270;SDS011;37744;50.960;4.136;2023-06-26T12:05:03;3.88;;;1.60;;
51270;SDS011;37744;50.960;4.136;2023-06-26T12:07:31;6.78;;;1.73;;
51270;SDS011;37744;50.960;4.136;2023-06-26T12:09:57;3.40;;;1.65;;
51270;SDS011;37744;50.960;4.136;2023-06-26T12:12:24;5.57;;;1.50;;
51270;SDS011;37744;50.960;4.136;2023-06-26T12:14:51;6.70;;;1.85;;
51270;SDS011;37744;50.960;4.136;2023-06-26T12:17:17;5.18;;;1.80;;
51270;SDS011;37744;50.960;4.136;2023-06-26T12:19:47;4.53;;;1.63;;
51270;SDS011;37744;50.960;4.136;2023-06-26T12:22:16;2.85;;;1.98;;
51270;SDS011;37744;50.960;4.136;2023-06-26T12:24:42;6.47;;;1.98;;
51270;SDS011;37744;50.960;4.136;2023-06-26T12:27:09;3.45;;;1.30;;
51270;SDS011;37744;50.960;4.136;2023-06-26T12:29:36;3.03;;;1.58;;
51270;SDS011;37744;50.960;4.136;2023-06-26T12:32:02;5.18;;;1.50;;
51270;SDS011;37744;50.960;4.136;2023-06-26T12:34:32;3.03;;;1.60;;
51270;SDS011;37744;50.960;4.136;2023-06-26T12:37:02;6.28;;;1.67;;
51270;SDS011;37744;50.960;4.136;2023-06-26T12:39:29;5.82;;;1.63;;
51270;SDS011;37744;50.960;4.136;2023-06-26T12:42:00;4.47;;;1.70;;
51270;SDS011;37744;50.960;4.136;2023-06-26T12:46:59;4.07;;;1.60;;
51270;SDS011;37744;50.960;4.136;2023-06-26T12:49:31;3.05;;;1.25;;
51270;SDS011;37744;50.960;4.136;2023-06-26T12:51:59;4.70;;;1.58;;
51270;SDS011;37744;50.960;4.136;2023-06-26T12:54:26;5.38;;;1.60;;
51270;SDS011;37744;50.960;4.136;2023-06-26T12:56:51;7.55;;;1.80;;
51270;SDS011;37744;50.960;4.136;2023-06-26T12:59:17;4.68;;;1.63;;
51270;SDS011;37744;50.960;4.136;2023-06-26T13:01:42;5.53;;;1.70;;
51270;SDS011;37744;50.960;4.136;2023-06-26T13:04:07;5.65;;;1.73;;
51270;SDS011;37744;50.960;4.136;2023-06-26T13:06:33;7.28;;;1.50;;
51270;SDS011;37744;50.960;4.136;2023-06-26T13:08:59;5.00;;;2.00;;
51270;SDS011;37744;50.960;4.136;2023-06-26T13:11:24;3.10;;;1.30;;
51270;SDS011;37744;50.960;4.136;2023-06-26T13:13:50;4.72;;;1.55;;
51270;SDS011;37744;50.960;4.136;2023-06-26T13:16:16;6.70;;;1.73;;
51270;SDS011;37744;50.960;4.136;2023-06-26T13:18:41;5.20;;;1.60;;
51270;SDS011;37744;50.960;4.136;2023-06-26T13:21:06;5.15;;;1.40;;
51270;SDS011;37744;50.960;4.136;2023-06-26T13:23:32;3.38;;;1.50;;
51270;SDS011;37744;50.960;4.136;2023-06-26T13:25:57;3.88;;;1.38;;
51270;SDS011;37744;50.960;4.136;2023-06-26T13:28:23;6.50;;;1.50;;
51270;SDS011;37744;50.960;4.136;2023-06-26T13:30:51;5.03;;;1.42;;
51270;SDS011;37744;50.960;4.136;2023-06-26T13:33:17;7.97;;;1.50;;
51270;SDS011;37744;50.960;4.136;2023-06-26T13:35:43;3.25;;;1.40;;
51270;SDS011;37744;50.960;4.136;2023-06-26T13:38:09;3.22;;;1.30;;
51270;SDS011;37744;50.960;4.136;2023-06-26T13:40:35;6.35;;;1.65;;
51270;SDS011;37744;50.960;4.136;2023-06-26T13:43:01;6.75;;;1.60;;
51270;SDS011;37744;50.960;4.136;2023-06-26T13:45:27;3.83;;;1.50;;
51270;SDS011;37744;50.960;4.136;2023-06-26T13:47:53;5.72;;;1.80;;
51270;SDS011;37744;50.960;4.136;2023-06-26T13:50:18;4.70;;;1.55;;
51270;SDS011;37744;50.960;4.136;2023-06-26T13:52:44;5.90;;;1.63;;
51270;SDS011;37744;50.960;4.136;2023-06-26T13:55:10;3.58;;;1.27;;
51270;SDS011;37744;50.960;4.136;2023-06-26T13:57:36;4.90;;;1.30;;
51270;SDS011;37744;50.960;4.136;2023-06-26T14:00:06;6.85;;;1.40;;
51270;SDS011;37744;50.960;4.136;2023-06-26T14:02:31;2.72;;;1.17;;
51270;SDS011;37744;50.960;4.136;2023-06-26T14:04:57;3.83;;;1.60;;
51270;SDS011;37744;50.960;4.136;2023-06-26T14:07:23;6.20;;;1.87;;
51270;SDS011;37744;50.960;4.136;2023-06-26T14:09:49;4.97;;;1.30;;
51270;SDS011;37744;50.960;4.136;2023-06-26T14:12:15;6.27;;;1.33;;
51270;SDS011;37744;50.960;4.136;2023-06-26T14:14:40;5.88;;;1.52;;
51270;SDS011;37744;50.960;4.136;2023-06-26T14:17:07;6.03;;;1.50;;
51270;SDS011;37744;50.960;4.136;2023-06-26T14:19:34;4.18;;;1.42;;
51270;SDS011;37744;50.960;4.136;2023-06-26T14:21:59;7.15;;;1.73;;
51270;SDS011;37744;50.960;4.136;2023-06-26T14:24:26;4.65;;;1.13;;
51270;SDS011;37744;50.960;4.136;2023-06-26T14:26:51;4.13;;;1.70;;
51270;SDS011;37744;50.960;4.136;2023-06-26T14:29:16;4.50;;;1.98;;
51270;SDS011;37744;50.960;4.136;2023-06-26T14:31:42;4.40;;;1.50;;
51270;SDS011;37744;50.960;4.136;2023-06-26T14:34:09;2.45;;;1.38;;
51270;SDS011;37744;50.960;4.136;2023-06-26T14:36:35;3.40;;;1.65;;
51270;SDS011;37744;50.960;4.136;2023-06-26T14:39:03;5.20;;;1.40;;
51270;SDS011;37744;50.960;4.136;2023-06-26T14:41:29;5.13;;;1.67;;
51270;SDS011;37744;50.960;4.136;2023-06-26T14:43:55;4.93;;;1.55;;
51270;SDS011;37744;50.960;4.136;2023-06-26T14:46:20;3.35;;;1.20;;
51270;SDS011;37744;50.960;4.136;2023-06-26T14:48:45;3.85;;;1.40;;
51270;SDS011;37744;50.960;4.136;2023-06-26T14:51:12;6.03;;;1.52;;
51270;SDS011;37744;50.960;4.136;2023-06-26T14:53:38;2.67;;;1.30;;